»·PEaware :: N25EL KAJO-KVCV

N25EL :: KAJO-KVCV

FLIGHT INFORMATION

Flight Status: Arrived
Operator: Privately registered:
United States
More flights under this callsign
Pilot: Anonymous 31931 (31931)
Aircraft: MOONEY M-20 201 202 205 220 ATS MSE
(M20P)
More flights by this aircraft type
Origin: KAJO Corona Mun
United States
Destination: KVCV Socal Logistics
United States
More flights between these airports :: More routes between these airports
Route: +PDZ V442 APLES
File this flight plan on PilotEdge
Remarks: KAJO ODP w / hold at PDZ, VOR / DME 17 approach at KVCV
Altitude:
(Current/Filed)
10,000ft
Speed:
(Current/Filed)
150kts
Departed: 23-Oct-20 05:15 PM
Arrived: 23-Oct-20 06:06 PM
Distance/Time
Traveled:
43nm/0:51
Distance/Time
To Go:
Arrived

Flight Plot

Page will automatically refresh every two minutes.


Map Options




Map Legend


Flown Route
Filed Route
Departure Airport
Arrival Airport
Navaid (VOR, NDB)
Fix

Horizontal Profiles

Position Reports

Time Latitude Longitude Heading Altitude Ground
Speed
23-Oct-20 16:56 33.896434 -117.608166 93 535ft 0kts
23-Oct-20 16:57 33.896434 -117.608166 93 535ft 0kts
23-Oct-20 16:58 33.896434 -117.608166 93 535ft 0kts
23-Oct-20 16:59 33.896434 -117.608166 93 535ft 0kts
23-Oct-20 17:00 33.896434 -117.608166 93 535ft 0kts
23-Oct-20 17:01 33.896434 -117.608166 93 535ft 0kts
23-Oct-20 17:02 33.896434 -117.608166 93 535ft 0kts
23-Oct-20 17:03 33.896434 -117.608166 93 535ft 0kts
23-Oct-20 17:04 33.896434 -117.608166 93 535ft 0kts
23-Oct-20 17:05 33.896434 -117.608166 93 535ft 0kts
23-Oct-20 17:06 33.896434 -117.608166 93 535ft 0kts
23-Oct-20 17:07 33.896434 -117.608166 93 535ft 0kts
23-Oct-20 17:08 33.896282 -117.607215 94 535ft 8kts
23-Oct-20 17:09 33.897210 -117.606723 269 535ft 0kts
23-Oct-20 17:10 33.897209 -117.606825 268 535ft 0kts
23-Oct-20 17:11 33.897209 -117.606825 268 535ft 0kts
23-Oct-20 17:12 33.897208 -117.606826 269 535ft 0kts
23-Oct-20 17:13 33.897634 -117.606502 88 535ft 28kts
23-Oct-20 17:14 33.903866 -117.577064 59 1460ft 106kts
23-Oct-20 17:15 33.915168 -117.542868 74 2764ft 112kts
23-Oct-20 17:16 33.932173 -117.513138 41 3939ft 119kts
23-Oct-20 17:17 33.957534 -117.489476 356 5152ft 114kts
23-Oct-20 17:18 33.952658 -117.511919 183 5990ft 132kts
23-Oct-20 17:19 33.916030 -117.530413 229 5975ft 163kts
23-Oct-20 17:20 33.929692 -117.570769 5 6023ft 171kts
23-Oct-20 17:21 33.967565 -117.535686 40 6006ft 175kts
23-Oct-20 17:22 33.986931 -117.492292 135 6653ft 152kts
23-Oct-20 17:23 33.948816 -117.499848 208 7349ft 159kts
23-Oct-20 17:24 33.918768 -117.528923 230 8633ft 121kts
23-Oct-20 17:25 33.932360 -117.554223 15 9001ft 157kts
23-Oct-20 17:26 33.961741 -117.510254 50 8981ft 177kts
23-Oct-20 17:27 34.004182 -117.478940 26 8981ft 181kts
23-Oct-20 17:28 34.049559 -117.451649 26 8981ft 183kts
23-Oct-20 17:29 34.095088 -117.424246 26 8981ft 183kts
23-Oct-20 17:30 34.140625 -117.396803 26 8981ft 183kts
23-Oct-20 17:31 34.186061 -117.369390 26 8981ft 183kts
23-Oct-20 17:32 34.231676 -117.341836 26 8981ft 183kts
23-Oct-20 17:33 34.277222 -117.314289 26 8981ft 183kts
23-Oct-20 17:34 34.322644 -117.286785 26 8981ft 183kts
23-Oct-20 17:35 34.368235 -117.259144 26 8981ft 183kts
23-Oct-20 17:36 34.413773 -117.231502 26 8981ft 183kts
23-Oct-20 17:37 34.459169 -117.203912 26 8981ft 183kts
23-Oct-20 17:39 34.504802 -117.176143 26 8981ft 183kts
23-Oct-20 17:40 34.550688 -117.149483 16 8981ft 183kts
23-Oct-20 17:41 34.599786 -117.142996 358 8345ft 179kts
23-Oct-20 17:42 34.649118 -117.152018 344 7443ft 180kts
23-Oct-20 17:43 34.695007 -117.175287 330 6606ft 176kts
23-Oct-20 17:44 34.734313 -117.210774 316 6581ft 177kts
23-Oct-20 17:45 34.765588 -117.256855 302 6581ft 177kts
23-Oct-20 17:46 34.786867 -117.310758 288 6481ft 181kts
23-Oct-20 17:47 34.794650 -117.371280 245 5570ft 186kts
23-Oct-20 17:48 34.748129 -117.377216 180 4638ft 166kts
23-Oct-20 17:49 34.705756 -117.380275 187 3653ft 151kts
23-Oct-20 17:50 34.669722 -117.387014 185 3532ft 137kts
23-Oct-20 17:51 34.626190 -117.386686 177 3239ft 164kts
23-Oct-20 17:52 34.602924 -117.411263 292 4219ft 126kts
23-Oct-20 17:53 34.613883 -117.453408 285 5331ft 135kts
23-Oct-20 17:53 34.622071 -117.491419 284 5979ft 155kts
23-Oct-20 17:55 34.636511 -117.559166 284 5981ft 182kts
23-Oct-20 17:55 34.635285 -117.608631 278 5980ft 175kts
23-Oct-20 17:57 34.637008 -117.674274 219 5785ft 182kts
23-Oct-20 17:57 34.606650 -117.658261 89 5607ft 175kts
23-Oct-20 17:58 34.612417 -117.601478 98 5584ft 157kts
23-Oct-20 18:00 34.606612 -117.541691 84 5756ft 152kts
23-Oct-20 18:00 34.602963 -117.497615 105 5418ft 174kts
23-Oct-20 18:02 34.592912 -117.435381 79 4427ft 155kts
23-Oct-20 18:02 34.616124 -117.409648 4 3747ft 142kts
23-Oct-20 18:03 34.650681 -117.399888 62 3526ft 119kts
23-Oct-20 18:04 34.632904 -117.386823 180 3104ft 90kts
23-Oct-20 18:05 34.613979 -117.386724 176 2819ft 5kts
23-Oct-20 18:06 34.610578 -117.385147 89 2826ft 0kts
23-Oct-20 18:07 34.610578 -117.385147 89 2826ft 0kts
23-Oct-20 18:08 34.608599 -117.384160 179 2830ft 26kts
23-Oct-20 18:09 34.598359 -117.384069 179 2847ft 41kts
23-Oct-20 18:10 34.592708 -117.381358 134 2858ft 28kts
23-Oct-20 18:11 34.589099 -117.376869 133 2868ft 19kts

Navigation Log

Ident Type
Flight plan parsing failed, navigation log unavailable